createdAt,value
2019-05-05T00:01:21.238Z,98107.86
2019-05-05T00:03:47.295Z,98097.28
2019-05-05T00:06:14.695Z,98107.30
2019-05-05T00:08:40.877Z,98107.30
2019-05-05T00:11:07.206Z,98104.17
2019-05-05T00:13:34.660Z,98111.11
2019-05-05T00:16:00.787Z,98108.88
2019-05-05T00:18:27.138Z,98109.92
2019-05-05T00:20:55.175Z,98106.48
2019-05-05T00:23:21.415Z,98109.08
2019-05-05T00:25:47.439Z,98107.41
2019-05-05T00:28:14.331Z,98115.60
2019-05-05T00:30:40.625Z,98107.67
2019-05-05T00:33:06.619Z,98111.92
2019-05-05T00:35:34.470Z,98115.98
2019-05-05T00:38:00.677Z,98116.41
2019-05-05T00:40:26.746Z,98123.20
2019-05-05T00:42:54.606Z,98128.31
2019-05-05T00:45:20.942Z,98136.18
2019-05-05T00:47:46.964Z,98134.47
2019-05-05T00:50:14.588Z,98143.80
2019-05-05T00:52:40.623Z,98144.31
2019-05-05T00:55:07.412Z,98152.34
2019-05-05T00:57:34.779Z,98152.59
2019-05-05T01:00:01.173Z,98166.13
2019-05-05T01:02:27.304Z,98169.58
2019-05-05T01:04:55.075Z,98169.94
2019-05-05T01:07:21.379Z,98177.07
2019-05-05T01:09:47.723Z,98171.59
2019-05-05T01:12:14.977Z,98178.45
2019-05-05T01:14:41.216Z,98185.90
2019-05-05T01:17:07.324Z,98183.77
2019-05-05T01:19:34.988Z,98184.34
2019-05-05T01:22:01.421Z,98189.17
2019-05-05T01:24:28.567Z,98195.08
2019-05-05T01:26:55.169Z,98184.47
2019-05-05T01:29:21.437Z,98185.84
2019-05-05T01:31:47.463Z,98197.40
2019-05-05T01:34:15.084Z,98196.93
2019-05-05T01:36:42.569Z,98192.33
2019-05-05T01:39:09.927Z,98194.83
2019-05-05T01:41:36.048Z,98200.13
2019-05-05T01:44:02.379Z,98203.79
2019-05-05T01:46:28.401Z,98205.08
2019-05-05T01:48:54.983Z,98215.58
2019-05-05T01:51:21.163Z,98214.17
2019-05-05T01:53:47.290Z,98226.67
2019-05-05T01:56:15.363Z,98225.02
2019-05-05T01:58:41.790Z,98232.42
2019-05-05T02:01:07.817Z,98238.19
2019-05-05T02:03:34.973Z,98236.30
2019-05-05T02:06:01.498Z,98231.81
2019-05-05T02:08:27.727Z,98230.27
2019-05-05T02:10:54.807Z,98230.41
2019-05-05T02:13:21.340Z,98234.16
2019-05-05T02:15:47.332Z,98239.26
2019-05-05T02:18:14.932Z,98240.55
2019-05-05T02:20:45.052Z,98238.19
2019-05-05T02:23:11.435Z,98244.32
2019-05-05T02:25:37.665Z,98241.25
2019-05-05T02:28:04.491Z,98250.20
2019-05-05T02:30:30.840Z,98255.05
2019-05-05T02:32:56.965Z,98248.81
2019-05-05T02:35:25.533Z,98249.14
2019-05-05T02:37:51.063Z,98255.03
2019-05-05T02:40:18.104Z,98266.45
2019-05-05T02:42:45.863Z,98268.12
2019-05-05T02:45:25.054Z,98271.05
2019-05-05T02:47:54.727Z,98281.77
2019-05-05T02:50:21.241Z,98274.02
2019-05-05T02:52:48.079Z,98282.48
2019-05-05T02:55:15.328Z,98272.34
2019-05-05T02:57:43.823Z,98276.22
2019-05-05T03:00:10.243Z,98278.47
2019-05-05T03:02:36.691Z,98274.78
2019-05-05T03:05:04.314Z,98272.33
2019-05-05T03:07:34.346Z,98276.34
2019-05-05T03:10:00.793Z,98282.90
2019-05-05T03:12:29.562Z,98284.90
2019-05-05T03:14:57.230Z,98120.45
2019-05-05T03:17:23.691Z,98288.92
2019-05-05T03:19:50.814Z,98296.32
2019-05-05T03:22:17.857Z,98293.27
2019-05-05T03:24:45.008Z,98293.86
2019-05-05T03:27:11.141Z,98298.09
2019-05-05T03:29:38.691Z,98299.26
2019-05-05T03:32:05.875Z,98296.99
2019-05-05T03:34:34.323Z,98301.14
2019-05-05T03:37:00.738Z,98300.42
2019-05-05T03:39:27.185Z,98304.77
2019-05-05T03:41:54.290Z,98314.23
2019-05-05T03:44:20.765Z,98312.98
2019-05-05T03:46:47.456Z,98313.78
2019-05-05T03:49:14.249Z,98323.09
2019-05-05T03:51:40.575Z,98324.02
2019-05-05T03:54:06.801Z,98331.09
2019-05-05T03:56:34.741Z,98331.09
2019-05-05T03:59:01.346Z,98337.92
2019-05-05T04:01:35.207Z,98337.20
2019-05-05T04:04:03.341Z,98340.62
2019-05-05T04:06:29.168Z,98347.43
2019-05-05T04:08:55.428Z,98349.98
2019-05-05T04:11:23.590Z,98358.62
2019-05-05T04:13:49.724Z,98354.98
2019-05-05T04:16:15.818Z,98355.70
2019-05-05T04:18:43.557Z,98357.50
2019-05-05T04:21:09.739Z,98362.20
2019-05-05T04:23:35.862Z,98356.53
2019-05-05T04:26:03.762Z,98357.94
2019-05-05T04:28:29.902Z,98369.11
2019-05-05T04:30:55.860Z,98364.75
2019-05-05T04:33:23.653Z,98367.01
2019-05-05T04:35:49.787Z,98288.58
2019-05-05T04:38:15.785Z,98368.09
2019-05-05T04:40:43.559Z,98371.73
2019-05-05T04:43:09.674Z,98374.55
2019-05-05T04:45:35.678Z,98376.44
2019-05-05T04:48:04.201Z,98374.77
2019-05-05T04:50:30.219Z,98374.39
2019-05-05T04:52:56.330Z,98376.38
2019-05-05T04:55:24.351Z,98375.14
2019-05-05T04:57:50.418Z,98380.30
2019-05-05T05:00:16.852Z,98377.70
2019-05-05T05:02:43.620Z,98380.09
2019-05-05T05:05:09.922Z,98384.78
2019-05-05T05:07:35.944Z,98380.56
2019-05-05T05:10:04.630Z,98377.70
2019-05-05T05:12:30.648Z,98392.72
2019-05-05T05:14:56.673Z,98389.39
2019-05-05T05:17:24.720Z,98386.69
2019-05-05T05:19:50.662Z,98398.65
2019-05-05T05:22:16.684Z,98396.56
2019-05-05T05:24:44.667Z,98402.43
2019-05-05T05:27:10.984Z,98404.38
2019-05-05T05:29:37.011Z,98407.33
2019-05-05T05:32:04.222Z,98404.10
2019-05-05T05:34:30.388Z,98411.84
2019-05-05T05:36:56.505Z,98417.81
2019-05-05T05:39:24.361Z,98424.03
2019-05-05T05:41:50.494Z,98431.09
2019-05-05T05:44:16.520Z,98430.02
2019-05-05T05:46:43.869Z,98432.39
2019-05-05T05:49:10.408Z,98437.41
2019-05-05T05:51:36.634Z,98441.73
2019-05-05T05:54:03.784Z,98443.95
2019-05-05T05:56:29.912Z,98439.02
2019-05-05T05:58:55.931Z,98445.48
2019-05-05T06:01:23.928Z,98444.58
2019-05-05T06:03:50.022Z,98445.91
2019-05-05T06:06:16.044Z,98439.31
2019-05-05T06:08:43.964Z,98440.69
2019-05-05T06:11:10.036Z,98442.19
2019-05-05T06:13:36.161Z,98441.92
2019-05-05T06:16:04.263Z,98435.97
2019-05-05T06:18:30.666Z,98442.79
2019-05-05T06:20:56.789Z,98425.94
2019-05-05T06:23:24.018Z,98425.17
2019-05-05T06:25:51.499Z,98430.22
2019-05-05T06:28:17.596Z,98427.95
2019-05-05T06:30:44.272Z,98424.63
2019-05-05T06:33:10.689Z,98417.19
2019-05-05T06:35:37.955Z,98414.42
2019-05-05T06:38:04.724Z,98111.00
2019-05-05T06:40:31.123Z,98418.14
2019-05-05T06:42:57.567Z,98419.91
2019-05-05T06:45:23.968Z,98417.81
2019-05-05T06:47:50.037Z,98424.86
2019-05-05T06:50:16.226Z,98421.05
2019-05-05T06:52:45.182Z,98421.54
2019-05-05T06:55:10.320Z,98418.77
2019-05-05T06:57:36.388Z,98421.60
2019-05-05T07:00:04.412Z,98432.09
2019-05-05T07:02:30.536Z,98428.27
2019-05-05T07:04:56.661Z,98422.37
2019-05-05T07:07:23.607Z,98417.97
2019-05-05T07:09:49.787Z,98417.96
2019-05-05T07:12:15.863Z,98421.23
2019-05-05T07:14:41.879Z,98426.80
2019-05-05T07:17:07.833Z,98390.95
2019-05-05T07:19:34.471Z,98419.77
2019-05-05T07:22:01.176Z,98430.44
2019-05-05T07:24:27.173Z,98427.65
2019-05-05T07:26:54.217Z,98427.32
2019-05-05T07:29:20.526Z,98429.83
2019-05-05T07:31:46.597Z,98426.01
2019-05-05T07:34:13.689Z,98429.44
2019-05-05T07:36:41.098Z,98430.64
2019-05-05T07:39:07.327Z,98426.48
2019-05-05T07:41:34.130Z,98432.13
2019-05-05T07:44:00.708Z,98435.95
2019-05-05T07:46:26.933Z,98431.06
2019-05-05T07:48:54.475Z,98420.69
2019-05-05T07:51:20.715Z,98423.28
2019-05-05T07:53:46.839Z,98422.50
2019-05-05T07:56:14.540Z,98421.93
2019-05-05T07:58:40.834Z,98421.75
2019-05-05T08:01:06.958Z,98420.56
2019-05-05T08:03:33.864Z,98425.18
2019-05-05T08:06:00.135Z,98431.86
2019-05-05T08:08:26.151Z,98432.41
2019-05-05T08:10:54.203Z,98428.09
2019-05-05T08:13:20.556Z,98426.48
2019-05-05T08:15:56.258Z,98428.80
2019-05-05T08:18:14.848Z,98428.92
2019-05-05T08:20:40.885Z,98434.41
2019-05-05T08:23:08.326Z,98431.09
2019-05-05T08:25:39.986Z,98431.56
2019-05-05T08:28:04.343Z,98428.84
2019-05-05T08:30:30.715Z,98434.31
2019-05-05T08:32:56.718Z,98436.08
2019-05-05T08:35:23.778Z,98430.67
2019-05-05T08:37:50.093Z,98430.07
2019-05-05T08:40:17.550Z,98436.34
2019-05-05T08:42:44.824Z,98437.44
2019-05-05T08:45:11.233Z,98438.05
2019-05-05T08:47:39.692Z,98451.33
2019-05-05T08:50:06.660Z,98446.80
2019-05-05T08:52:34.297Z,98438.73
2019-05-05T08:55:00.357Z,98433.56
2019-05-05T08:57:26.468Z,98445.89
2019-05-05T08:59:54.491Z,98449.22
2019-05-05T09:02:20.560Z,98451.11
2019-05-05T09:04:47.708Z,98451.92
2019-05-05T09:07:13.916Z,98445.72
2019-05-05T09:09:40.065Z,98443.31
2019-05-05T09:12:06.406Z,98447.64
2019-05-05T09:14:34.438Z,98449.31
2019-05-05T09:17:00.588Z,98447.38
2019-05-05T09:19:26.720Z,98448.92
2019-05-05T09:21:54.148Z,98449.84
2019-05-05T09:24:20.806Z,98454.13
2019-05-05T09:26:47.238Z,98449.69
2019-05-05T09:29:13.800Z,98448.11
2019-05-05T09:31:39.998Z,98452.66
2019-05-05T09:34:06.227Z,98458.89
2019-05-05T09:36:34.758Z,98462.61
2019-05-05T09:39:00.830Z,98458.80
2019-05-05T09:41:26.958Z,98455.95
2019-05-05T09:43:53.937Z,98453.66
2019-05-05T09:46:20.127Z,98333.55
2019-05-05T09:48:46.089Z,98447.31
2019-05-05T09:51:13.620Z,98447.67
2019-05-05T09:53:39.833Z,98442.73
2019-05-05T09:56:06.177Z,98441.23
2019-05-05T09:58:34.580Z,98447.15
2019-05-05T10:01:00.564Z,98445.05
2019-05-05T10:03:26.690Z,98454.09
2019-05-05T10:05:54.079Z,98454.92
2019-05-05T10:08:20.268Z,98451.41
2019-05-05T10:10:46.501Z,98457.45
2019-05-05T10:13:14.938Z,98455.02
2019-05-05T10:15:41.102Z,98465.26
2019-05-05T10:18:07.125Z,98456.24
2019-05-05T10:20:34.363Z,98450.62
2019-05-05T10:23:00.506Z,98459.10
2019-05-05T10:25:26.525Z,98456.70
2019-05-05T10:27:53.972Z,98464.28
2019-05-05T10:30:20.310Z,98464.56
2019-05-05T10:32:46.447Z,98467.67
2019-05-05T10:35:14.327Z,98468.94
2019-05-05T10:37:40.639Z,98465.59
2019-05-05T10:40:06.881Z,98466.44
2019-05-05T10:42:33.647Z,98472.50
2019-05-05T10:44:59.930Z,98359.64
2019-05-05T10:47:25.956Z,98465.31
2019-05-05T10:49:54.372Z,98470.58
2019-05-05T10:52:20.156Z,98323.15
2019-05-05T10:54:46.267Z,98463.50
2019-05-05T10:57:14.407Z,98464.38
2019-05-05T10:59:43.416Z,98465.34
2019-05-05T11:02:09.661Z,98469.23
2019-05-05T11:04:35.810Z,98466.82
2019-05-05T11:07:04.160Z,98467.89
2019-05-05T11:09:30.327Z,98468.48
2019-05-05T11:11:56.312Z,98469.46
2019-05-05T11:14:22.437Z,98472.00
2019-05-05T11:16:49.074Z,98466.77
2019-05-05T11:19:15.511Z,98484.52
2019-05-05T11:21:43.556Z,98448.66
2019-05-05T11:24:09.804Z,98475.61
2019-05-05T11:26:36.031Z,98479.44
2019-05-05T11:29:04.128Z,98484.50
2019-05-05T11:31:30.226Z,98479.37
2019-05-05T11:33:56.251Z,98480.69
2019-05-05T11:36:23.984Z,98482.23
2019-05-05T11:38:50.137Z,98486.77
2019-05-05T11:41:16.262Z,98481.44
2019-05-05T11:43:42.386Z,98481.77
2019-05-05T11:46:08.721Z,98483.83
2019-05-05T11:48:34.740Z,98485.50
2019-05-05T11:51:00.863Z,98474.22
2019-05-05T11:53:26.890Z,98480.47
2019-05-05T11:55:54.980Z,98475.09
2019-05-05T11:58:22.006Z,98475.09
2019-05-05T12:00:48.027Z,98473.94
2019-05-05T12:03:14.530Z,98472.75
2019-05-05T12:05:40.891Z,98477.98
2019-05-05T12:08:07.021Z,98472.75
2019-05-05T12:10:34.419Z,98468.59
2019-05-05T12:13:00.904Z,98465.80
2019-05-05T12:15:27.645Z,98471.30
2019-05-05T12:17:54.541Z,98472.01
2019-05-05T12:20:36.073Z,98472.32
2019-05-05T12:23:04.705Z,98470.96
2019-05-05T12:25:31.088Z,98478.95
2019-05-05T12:27:57.217Z,98478.11
2019-05-05T12:30:24.486Z,98472.55
2019-05-05T12:32:50.590Z,98469.78
2019-05-05T12:35:16.712Z,98470.89
2019-05-05T12:37:44.538Z,98471.83
2019-05-05T12:40:10.910Z,98477.14
2019-05-05T12:42:37.240Z,98474.05
2019-05-05T12:45:05.515Z,98476.23
2019-05-05T12:47:34.245Z,98470.44
2019-05-05T12:50:00.631Z,98467.47
2019-05-05T12:52:27.988Z,98477.02
2019-05-05T12:54:54.636Z,98477.66
2019-05-05T12:57:20.954Z,98477.06
2019-05-05T12:59:47.179Z,98472.05
2019-05-05T13:02:14.264Z,98480.42
2019-05-05T13:04:40.456Z,98476.41
2019-05-05T13:07:08.291Z,98480.66
2019-05-05T13:09:34.956Z,98480.98
2019-05-05T13:12:01.493Z,98476.73
2019-05-05T13:14:27.720Z,98479.30
2019-05-05T13:16:56.009Z,98479.59
2019-05-05T13:19:24.051Z,98479.19
2019-05-05T13:21:50.314Z,98481.77
2019-05-05T13:24:16.417Z,98476.93
2019-05-05T13:26:43.566Z,98476.17
2019-05-05T13:29:10.714Z,98470.63
2019-05-05T13:31:36.942Z,98482.66
2019-05-05T13:34:04.428Z,98476.45
2019-05-05T13:36:30.841Z,98477.21
2019-05-05T13:38:56.854Z,98481.50
2019-05-05T13:41:23.081Z,98482.34
2019-05-05T13:43:50.333Z,98479.28
2019-05-05T13:46:16.456Z,98484.47
2019-05-05T13:48:44.422Z,98485.55
2019-05-05T13:51:14.637Z,98479.64
2019-05-05T13:53:40.978Z,98475.58
2019-05-05T13:56:11.929Z,98473.98
2019-05-05T13:58:35.377Z,98457.78
2019-05-05T14:01:03.760Z,98474.92
2019-05-05T14:03:30.176Z,98475.14
2019-05-05T14:05:57.444Z,98476.11
2019-05-05T14:08:23.886Z,98476.78
2019-05-05T14:10:50.201Z,98476.63
2019-05-05T14:13:16.386Z,98475.38
2019-05-05T14:15:44.076Z,98479.10
2019-05-05T14:18:10.521Z,98482.59
2019-05-05T14:20:36.751Z,98475.63
2019-05-05T14:23:04.222Z,98477.08
2019-05-05T14:25:30.227Z,98476.02
2019-05-05T14:27:56.454Z,98491.45
2019-05-05T14:30:23.649Z,98478.80
2019-05-05T14:32:49.889Z,98484.92
2019-05-05T14:35:22.103Z,98483.64
2019-05-05T14:37:55.399Z,98483.64
2019-05-05T14:40:21.516Z,98482.05
2019-05-05T14:42:47.642Z,98484.10
2019-05-05T14:45:15.376Z,98475.21
2019-05-05T14:47:44.008Z,98474.16
2019-05-05T14:50:10.532Z,98473.67
2019-05-05T14:52:36.752Z,98478.31
2019-05-05T14:55:04.926Z,98473.83
2019-05-05T14:57:31.255Z,98476.63
2019-05-05T14:59:57.381Z,98476.73
2019-05-05T15:02:24.532Z,98473.44
2019-05-05T15:04:50.758Z,98476.89
2019-05-05T15:07:16.881Z,98475.02
2019-05-05T15:09:44.132Z,98471.00
2019-05-05T15:12:11.178Z,98470.20
2019-05-05T15:14:37.200Z,98462.09
2019-05-05T15:17:03.732Z,98461.63
2019-05-05T15:19:33.971Z,98464.16
2019-05-05T15:22:00.186Z,98473.52
2019-05-05T15:24:26.201Z,98463.67
2019-05-05T15:26:54.969Z,98464.42
2019-05-05T15:29:22.160Z,98468.37
2019-05-05T15:31:48.126Z,98471.02
2019-05-05T15:34:14.186Z,98463.50
2019-05-05T15:36:41.441Z,98467.94
2019-05-05T15:39:08.138Z,98467.20
2019-05-05T15:41:34.306Z,98458.53
2019-05-05T15:44:03.749Z,98457.66
2019-05-05T15:46:30.341Z,98457.98
2019-05-05T15:48:56.369Z,98452.36
2019-05-05T15:51:23.685Z,98457.23
2019-05-05T15:53:50.051Z,98456.86
2019-05-05T15:56:16.073Z,98458.80
2019-05-05T15:58:43.506Z,98451.99
2019-05-05T16:01:09.898Z,98456.73
2019-05-05T16:03:36.190Z,98460.38
2019-05-05T16:06:03.775Z,98459.30
2019-05-05T16:08:29.970Z,98459.00
2019-05-05T16:10:56.099Z,98459.51
2019-05-05T16:13:22.222Z,98460.36
2019-05-05T16:15:48.449Z,98459.86
2019-05-05T16:18:14.678Z,98462.98
2019-05-05T16:20:40.808Z,98466.20
2019-05-05T16:23:06.984Z,98460.89
2019-05-05T16:25:33.055Z,98457.05
2019-05-05T16:27:59.386Z,98463.18
2019-05-05T16:30:25.814Z,98472.86
2019-05-05T16:32:54.979Z,98465.28
2019-05-05T16:35:20.116Z,98464.62
2019-05-05T16:37:46.386Z,98467.55
2019-05-05T16:40:14.412Z,98470.80
2019-05-05T16:42:41.150Z,98472.00
2019-05-05T16:45:07.891Z,98471.70
2019-05-05T16:47:34.627Z,98468.80
2019-05-05T16:50:00.752Z,98473.08
2019-05-05T16:52:26.744Z,98468.19
2019-05-05T16:54:53.342Z,98463.29
2019-05-05T16:57:33.191Z,98469.36
2019-05-05T16:59:48.838Z,98463.90
2019-05-05T17:02:15.065Z,98464.95
2019-05-05T17:04:43.251Z,98464.69
2019-05-05T17:07:09.371Z,98474.83
2019-05-05T17:09:35.487Z,98468.61
2019-05-05T17:12:03.342Z,98467.80
2019-05-05T17:14:29.487Z,98467.69
2019-05-05T17:16:55.706Z,98465.43
2019-05-05T17:19:21.967Z,98460.98
2019-05-05T17:21:48.230Z,98469.98
2019-05-05T17:24:14.552Z,98471.52
2019-05-05T17:26:40.826Z,98441.23
2019-05-05T17:29:07.052Z,98475.86
2019-05-05T17:31:33.995Z,98478.01
2019-05-05T17:34:00.322Z,98476.50
2019-05-05T17:36:27.573Z,98405.55
2019-05-05T17:38:54.415Z,98480.02
2019-05-05T17:41:20.541Z,98472.63
2019-05-05T17:43:46.569Z,98474.29
2019-05-05T17:46:13.490Z,98474.14
2019-05-05T17:48:39.632Z,98481.38
2019-05-05T17:51:05.755Z,98479.27
2019-05-05T17:53:31.903Z,98486.63
2019-05-05T17:55:58.010Z,98489.59
2019-05-05T17:58:24.728Z,98486.28
2019-05-05T18:00:54.213Z,98487.62
2019-05-05T18:03:20.169Z,98493.33
2019-05-05T18:05:46.366Z,98488.91
2019-05-05T18:08:13.829Z,98489.21
2019-05-05T18:10:39.968Z,98486.56
2019-05-05T18:13:06.006Z,98488.50
2019-05-05T18:15:34.001Z,98497.34
2019-05-05T18:18:00.094Z,98499.73
2019-05-05T18:20:27.143Z,98502.95
2019-05-05T18:22:53.613Z,98497.52
2019-05-05T18:25:20.028Z,98502.08
2019-05-05T18:27:46.134Z,98505.34
2019-05-05T18:30:13.079Z,98509.58
2019-05-05T18:32:39.409Z,98511.48
2019-05-05T18:35:06.758Z,98511.97
2019-05-05T18:37:33.967Z,98508.36
2019-05-05T18:40:00.174Z,98510.80
2019-05-05T18:42:26.157Z,98365.09
2019-05-05T18:44:54.022Z,98515.73
2019-05-05T18:47:20.274Z,98515.75
2019-05-05T18:49:46.685Z,98521.65
2019-05-05T18:52:13.855Z,98531.53
2019-05-05T18:54:40.569Z,98523.36
2019-05-05T18:57:08.031Z,98526.34
2019-05-05T18:59:34.357Z,98538.13
2019-05-05T19:02:00.860Z,98540.10
2019-05-05T19:04:27.225Z,98541.58
2019-05-05T19:06:54.568Z,98545.42
2019-05-05T19:09:20.700Z,98547.25
2019-05-05T19:11:46.818Z,98553.59
2019-05-05T19:14:14.315Z,98549.33
2019-05-05T19:16:40.611Z,98553.05
2019-05-05T19:19:06.777Z,98552.75
2019-05-05T19:21:34.014Z,98553.16
2019-05-05T19:24:00.932Z,98553.13
2019-05-05T19:26:27.058Z,98547.58
2019-05-05T19:28:54.740Z,98550.99
2019-05-05T19:31:21.009Z,98550.65
2019-05-05T19:33:47.174Z,98555.06
2019-05-05T19:36:13.400Z,98558.98
2019-05-05T19:38:39.525Z,98564.22
2019-05-05T19:41:06.879Z,98565.94
2019-05-05T19:43:34.017Z,98567.80
2019-05-05T19:46:01.176Z,98566.73
2019-05-05T19:48:27.423Z,98568.09
2019-05-05T19:50:54.191Z,98574.56
2019-05-05T19:53:20.678Z,98572.91
2019-05-05T19:55:46.802Z,98578.66
2019-05-05T19:58:14.045Z,98567.80
2019-05-05T20:00:40.080Z,98565.92
2019-05-05T20:03:06.341Z,98573.02
2019-05-05T20:05:34.106Z,98568.03
2019-05-05T20:08:00.310Z,98570.91
2019-05-05T20:10:26.310Z,98573.77
2019-05-05T20:12:54.014Z,98571.70
2019-05-05T20:15:20.192Z,98573.91
2019-05-05T20:17:46.174Z,98569.88
2019-05-05T20:20:13.851Z,98580.39
2019-05-05T20:22:39.927Z,98575.64
2019-05-05T20:25:06.319Z,98456.45
2019-05-05T20:27:34.229Z,98582.97
2019-05-05T20:30:00.206Z,98579.75
2019-05-05T20:32:26.763Z,98580.58
2019-05-05T20:34:54.163Z,98584.18
2019-05-05T20:37:23.455Z,98586.44
2019-05-05T20:39:49.305Z,98584.98
2019-05-05T20:42:15.394Z,98589.78
2019-05-05T20:44:43.581Z,98585.23
2019-05-05T20:47:09.691Z,98583.03
2019-05-05T20:49:35.803Z,98581.02
2019-05-05T20:52:03.728Z,98584.22
2019-05-05T20:54:31.020Z,98584.08
2019-05-05T20:57:00.580Z,98581.52
2019-05-05T21:02:25.971Z,98573.19
2019-05-05T21:04:54.091Z,98576.42
2019-05-05T21:07:23.520Z,98575.33
2019-05-05T21:09:49.665Z,98578.00
2019-05-05T21:12:15.747Z,98581.57
2019-05-05T21:14:44.458Z,98578.55
2019-05-05T21:17:09.757Z,98574.09
2019-05-05T21:19:35.892Z,98577.64
2019-05-05T21:22:04.080Z,98573.86
2019-05-05T21:24:29.992Z,98574.20
2019-05-05T21:26:55.979Z,98579.27
2019-05-05T21:29:23.727Z,98574.84
2019-05-05T21:31:49.800Z,98570.23
2019-05-05T21:34:15.793Z,98570.09
2019-05-05T21:36:41.951Z,98567.19
2019-05-05T21:39:08.347Z,98576.05
2019-05-05T21:41:34.695Z,98572.95
2019-05-05T21:44:00.939Z,98574.58
2019-05-05T21:46:26.890Z,98572.66
2019-05-05T21:48:54.366Z,98579.97
2019-05-05T21:51:20.556Z,98575.80
2019-05-05T21:53:46.558Z,98576.16
2019-05-05T21:56:13.866Z,98578.01
2019-05-05T21:58:39.923Z,98587.56
2019-05-05T22:01:07.556Z,98578.06
2019-05-05T22:03:34.866Z,98577.94
2019-05-05T22:06:01.252Z,98574.50
2019-05-05T22:08:27.240Z,98581.98
2019-05-05T22:10:54.328Z,98581.38
2019-05-05T22:13:20.561Z,98571.59
2019-05-05T22:15:46.613Z,98568.02
2019-05-05T22:18:14.469Z,98570.28
2019-05-05T22:20:40.940Z,98569.94
2019-05-05T22:23:07.025Z,98564.23
2019-05-05T22:25:34.163Z,98565.83
2019-05-05T22:28:00.384Z,98563.70
2019-05-05T22:30:26.392Z,98562.55
2019-05-05T22:32:52.389Z,98557.74
2019-05-05T22:35:19.138Z,98563.27
2019-05-05T22:37:45.576Z,98562.78
2019-05-05T22:40:16.042Z,98564.34
2019-05-05T22:42:43.719Z,98565.92
2019-05-05T22:45:09.945Z,98565.22
2019-05-05T22:47:35.896Z,98566.81
2019-05-05T22:50:04.492Z,98569.66
2019-05-05T22:52:30.727Z,98570.42
2019-05-05T22:54:56.729Z,98564.88
2019-05-05T22:57:24.619Z,98567.52
2019-05-05T22:59:50.572Z,98565.61
2019-05-05T23:02:16.969Z,98566.48
2019-05-05T23:04:43.867Z,98572.72
2019-05-05T23:07:09.934Z,98566.00
2019-05-05T23:09:35.928Z,98562.22
2019-05-05T23:12:04.070Z,98561.13
2019-05-05T23:14:29.784Z,98562.45
2019-05-05T23:16:58.095Z,98563.72
2019-05-05T23:19:25.734Z,98565.24
2019-05-05T23:21:51.842Z,98567.78
2019-05-05T23:24:18.040Z,98569.63
2019-05-05T23:26:43.999Z,98570.50
2019-05-05T23:29:10.295Z,98568.30
2019-05-05T23:31:36.276Z,98575.03
2019-05-05T23:34:04.009Z,98572.89
2019-05-05T23:36:30.298Z,98568.52
2019-05-05T23:38:57.302Z,98572.56
2019-05-05T23:41:23.919Z,98575.72
2019-05-05T23:43:51.160Z,98568.72
2019-05-05T23:46:17.318Z,98573.67
2019-05-05T23:48:43.425Z,98572.66
2019-05-05T23:51:09.376Z,98573.28
2019-05-05T23:53:35.489Z,98574.70
2019-05-05T23:56:01.431Z,98573.55
2019-05-05T23:58:27.438Z,98577.94
